sensor_id;sensor_type;location;lat;lon;timestamp;P1;durP1;ratioP1;P2;durP2;ratioP2
63218;SDS011;49320;52.512;13.448;2023-11-21T00:02:26;4.18;;;3.78;;
63218;SDS011;49320;52.512;13.448;2023-11-21T00:04:53;5.07;;;4.50;;
63218;SDS011;49320;52.512;13.448;2023-11-21T00:07:20;6.30;;;5.00;;
63218;SDS011;49320;52.512;13.448;2023-11-21T00:09:47;5.28;;;4.30;;
63218;SDS011;49320;52.512;13.448;2023-11-21T00:12:14;6.43;;;5.53;;
63218;SDS011;49320;52.512;13.448;2023-11-21T00:14:42;7.38;;;6.20;;
63218;SDS011;49320;52.512;13.448;2023-11-21T00:17:09;7.80;;;6.47;;
63218;SDS011;49320;52.512;13.448;2023-11-21T00:19:36;8.23;;;6.88;;
63218;SDS011;49320;52.512;13.448;2023-11-21T00:22:03;9.30;;;7.53;;
63218;SDS011;49320;52.512;13.448;2023-11-21T00:24:29;8.82;;;7.72;;
63218;SDS011;49320;52.512;13.448;2023-11-21T00:26:56;9.93;;;7.82;;
63218;SDS011;49320;52.512;13.448;2023-11-21T00:29:23;10.60;;;8.15;;
63218;SDS011;49320;52.512;13.448;2023-11-21T00:31:50;10.40;;;8.50;;
63218;SDS011;49320;52.512;13.448;2023-11-21T00:34:17;12.52;;;10.38;;
63218;SDS011;49320;52.512;13.448;2023-11-21T00:36:44;14.98;;;10.82;;
63218;SDS011;49320;52.512;13.448;2023-11-21T00:39:11;14.88;;;11.30;;
63218;SDS011;49320;52.512;13.448;2023-11-21T00:41:38;13.10;;;10.80;;
63218;SDS011;49320;52.512;13.448;2023-11-21T00:44:05;15.15;;;10.98;;
63218;SDS011;49320;52.512;13.448;2023-11-21T00:46:33;16.55;;;12.05;;
63218;SDS011;49320;52.512;13.448;2023-11-21T00:49:00;19.52;;;12.70;;
63218;SDS011;49320;52.512;13.448;2023-11-21T00:51:30;15.30;;;11.60;;
63218;SDS011;49320;52.512;13.448;2023-11-21T00:53:57;18.40;;;12.45;;
63218;SDS011;49320;52.512;13.448;2023-11-21T00:56:24;17.77;;;12.55;;
63218;SDS011;49320;52.512;13.448;2023-11-21T00:58:51;20.75;;;13.25;;
63218;SDS011;49320;52.512;13.448;2023-11-21T01:01:19;16.77;;;12.38;;
63218;SDS011;49320;52.512;13.448;2023-11-21T01:03:49;19.80;;;13.10;;
63218;SDS011;49320;52.512;13.448;2023-11-21T01:06:16;17.80;;;12.85;;
63218;SDS011;49320;52.512;13.448;2023-11-21T01:08:43;18.58;;;13.30;;
63218;SDS011;49320;52.512;13.448;2023-11-21T01:11:11;17.52;;;13.57;;
63218;SDS011;49320;52.512;13.448;2023-11-21T01:13:38;20.48;;;14.65;;
63218;SDS011;49320;52.512;13.448;2023-11-21T01:16:06;19.65;;;13.32;;
63218;SDS011;49320;52.512;13.448;2023-11-21T01:18:37;19.02;;;13.75;;
63218;SDS011;49320;52.512;13.448;2023-11-21T01:21:04;21.38;;;15.45;;
63218;SDS011;49320;52.512;13.448;2023-11-21T01:23:31;21.58;;;14.90;;
63218;SDS011;49320;52.512;13.448;2023-11-21T01:25:59;23.55;;;16.27;;
63218;SDS011;49320;52.512;13.448;2023-11-21T01:28:26;25.48;;;17.50;;
63218;SDS011;49320;52.512;13.448;2023-11-21T01:30:53;32.45;;;20.35;;
63218;SDS011;49320;52.512;13.448;2023-11-21T01:33:22;28.33;;;19.80;;
63218;SDS011;49320;52.512;13.448;2023-11-21T01:35:51;36.35;;;22.95;;
63218;SDS011;49320;52.512;13.448;2023-11-21T01:38:21;34.67;;;22.40;;
63218;SDS011;49320;52.512;13.448;2023-11-21T01:40:48;31.08;;;20.05;;
63218;SDS011;49320;52.512;13.448;2023-11-21T01:43:15;30.40;;;20.35;;
63218;SDS011;49320;52.512;13.448;2023-11-21T01:45:43;29.98;;;18.67;;
63218;SDS011;49320;52.512;13.448;2023-11-21T01:48:11;27.27;;;18.20;;
63218;SDS011;49320;52.512;13.448;2023-11-21T01:50:39;30.50;;;18.73;;
63218;SDS011;49320;52.512;13.448;2023-11-21T01:53:07;28.38;;;17.80;;
63218;SDS011;49320;52.512;13.448;2023-11-21T01:55:35;25.67;;;17.23;;
63218;SDS011;49320;52.512;13.448;2023-11-21T01:58:02;25.27;;;15.25;;
63218;SDS011;49320;52.512;13.448;2023-11-21T02:00:29;25.88;;;15.20;;
63218;SDS011;49320;52.512;13.448;2023-11-21T02:02:57;21.70;;;14.30;;
63218;SDS011;49320;52.512;13.448;2023-11-21T02:05:25;22.00;;;13.57;;
63218;SDS011;49320;52.512;13.448;2023-11-21T02:07:52;18.90;;;11.68;;
63218;SDS011;49320;52.512;13.448;2023-11-21T02:10:19;18.67;;;12.35;;
63218;SDS011;49320;52.512;13.448;2023-11-21T02:12:50;19.05;;;12.40;;
63218;SDS011;49320;52.512;13.448;2023-11-21T02:15:18;17.10;;;11.18;;
63218;SDS011;49320;52.512;13.448;2023-11-21T02:17:48;19.63;;;11.88;;
63218;SDS011;49320;52.512;13.448;2023-11-21T02:20:21;18.88;;;11.85;;
63218;SDS011;49320;52.512;13.448;2023-11-21T02:25:27;18.02;;;11.82;;
63218;SDS011;49320;52.512;13.448;2023-11-21T02:27:57;18.05;;;12.30;;
63218;SDS011;49320;52.512;13.448;2023-11-21T02:30:26;16.35;;;11.18;;
63218;SDS011;49320;52.512;13.448;2023-11-21T02:32:54;17.48;;;11.48;;
63218;SDS011;49320;52.512;13.448;2023-11-21T02:35:23;17.02;;;10.48;;
63218;SDS011;49320;52.512;13.448;2023-11-21T02:37:54;13.45;;;10.25;;
63218;SDS011;49320;52.512;13.448;2023-11-21T02:40:21;17.33;;;10.02;;
63218;SDS011;49320;52.512;13.448;2023-11-21T02:42:51;17.27;;;10.07;;
63218;SDS011;49320;52.512;13.448;2023-11-21T02:45:19;13.90;;;9.20;;
63218;SDS011;49320;52.512;13.448;2023-11-21T02:47:50;12.85;;;8.95;;
63218;SDS011;49320;52.512;13.448;2023-11-21T02:50:20;13.50;;;9.18;;
63218;SDS011;49320;52.512;13.448;2023-11-21T02:52:49;13.38;;;9.02;;
63218;SDS011;49320;52.512;13.448;2023-11-21T02:55:17;13.02;;;9.15;;
63218;SDS011;49320;52.512;13.448;2023-11-21T02:57:44;10.18;;;8.35;;
63218;SDS011;49320;52.512;13.448;2023-11-21T03:00:11;10.30;;;8.32;;
63218;SDS011;49320;52.512;13.448;2023-11-21T03:02:41;10.10;;;8.15;;
63218;SDS011;49320;52.512;13.448;2023-11-21T03:05:10;10.27;;;7.90;;
63218;SDS011;49320;52.512;13.448;2023-11-21T03:07:37;10.35;;;7.97;;
63218;SDS011;49320;52.512;13.448;2023-11-21T03:10:07;9.35;;;7.95;;
63218;SDS011;49320;52.512;13.448;2023-11-21T03:12:38;9.70;;;8.25;;
63218;SDS011;49320;52.512;13.448;2023-11-21T03:15:06;8.55;;;7.20;;
63218;SDS011;49320;52.512;13.448;2023-11-21T03:17:34;9.30;;;8.00;;
63218;SDS011;49320;52.512;13.448;2023-11-21T03:20:01;8.93;;;7.68;;
63218;SDS011;49320;52.512;13.448;2023-11-21T03:22:30;9.85;;;7.68;;
63218;SDS011;49320;52.512;13.448;2023-11-21T03:24:57;8.95;;;7.85;;
63218;SDS011;49320;52.512;13.448;2023-11-21T03:27:24;9.48;;;6.78;;
63218;SDS011;49320;52.512;13.448;2023-11-21T03:29:51;8.90;;;7.63;;
63218;SDS011;49320;52.512;13.448;2023-11-21T03:32:18;8.13;;;7.32;;
63218;SDS011;49320;52.512;13.448;2023-11-21T03:34:55;7.95;;;6.95;;
63218;SDS011;49320;52.512;13.448;2023-11-21T03:37:25;7.35;;;6.53;;
63218;SDS011;49320;52.512;13.448;2023-11-21T03:39:55;8.50;;;7.60;;
63218;SDS011;49320;52.512;13.448;2023-11-21T03:42:23;7.80;;;7.00;;
63218;SDS011;49320;52.512;13.448;2023-11-21T03:44:53;8.63;;;6.90;;
63218;SDS011;49320;52.512;13.448;2023-11-21T03:47:20;7.60;;;6.90;;
63218;SDS011;49320;52.512;13.448;2023-11-21T03:49:47;7.45;;;6.40;;
63218;SDS011;49320;52.512;13.448;2023-11-21T03:52:15;7.32;;;6.45;;
63218;SDS011;49320;52.512;13.448;2023-11-21T03:54:42;7.95;;;7.07;;
63218;SDS011;49320;52.512;13.448;2023-11-21T03:57:10;7.35;;;6.65;;
63218;SDS011;49320;52.512;13.448;2023-11-21T03:59:41;7.72;;;6.75;;
63218;SDS011;49320;52.512;13.448;2023-11-21T04:02:09;7.95;;;6.85;;
63218;SDS011;49320;52.512;13.448;2023-11-21T04:04:36;7.57;;;6.65;;
63218;SDS011;49320;52.512;13.448;2023-11-21T04:07:04;7.07;;;6.38;;
63218;SDS011;49320;52.512;13.448;2023-11-21T04:09:31;7.32;;;6.60;;
63218;SDS011;49320;52.512;13.448;2023-11-21T04:11:58;7.25;;;6.47;;
63218;SDS011;49320;52.512;13.448;2023-11-21T04:14:25;8.13;;;7.32;;
63218;SDS011;49320;52.512;13.448;2023-11-21T04:16:52;8.13;;;7.20;;
63218;SDS011;49320;52.512;13.448;2023-11-21T04:19:20;8.70;;;7.03;;
63218;SDS011;49320;52.512;13.448;2023-11-21T04:21:47;7.25;;;6.55;;
63218;SDS011;49320;52.512;13.448;2023-11-21T04:24:14;6.70;;;6.00;;
63218;SDS011;49320;52.512;13.448;2023-11-21T04:26:41;6.95;;;6.25;;
63218;SDS011;49320;52.512;13.448;2023-11-21T04:29:08;7.47;;;6.65;;
63218;SDS011;49320;52.512;13.448;2023-11-21T04:31:34;7.68;;;6.22;;
63218;SDS011;49320;52.512;13.448;2023-11-21T04:34:01;6.43;;;5.70;;
63218;SDS011;49320;52.512;13.448;2023-11-21T04:36:30;5.75;;;5.15;;
63218;SDS011;49320;52.512;13.448;2023-11-21T04:38:57;6.40;;;5.63;;
63218;SDS011;49320;52.512;13.448;2023-11-21T04:41:24;6.88;;;5.82;;
63218;SDS011;49320;52.512;13.448;2023-11-21T04:43:51;7.05;;;5.57;;
63218;SDS011;49320;52.512;13.448;2023-11-21T04:46:18;6.43;;;5.72;;
63218;SDS011;49320;52.512;13.448;2023-11-21T04:48:45;6.90;;;5.97;;
63218;SDS011;49320;52.512;13.448;2023-11-21T04:51:13;8.18;;;6.70;;
63218;SDS011;49320;52.512;13.448;2023-11-21T04:53:40;6.95;;;6.22;;
63218;SDS011;49320;52.512;13.448;2023-11-21T04:56:07;7.18;;;6.35;;
63218;SDS011;49320;52.512;13.448;2023-11-21T04:58:34;7.28;;;6.05;;
63218;SDS011;49320;52.512;13.448;2023-11-21T05:01:02;6.43;;;5.53;;
63218;SDS011;49320;52.512;13.448;2023-11-21T05:03:33;6.68;;;5.40;;
63218;SDS011;49320;52.512;13.448;2023-11-21T05:06:01;6.13;;;5.28;;
63218;SDS011;49320;52.512;13.448;2023-11-21T05:08:28;6.93;;;6.10;;
63218;SDS011;49320;52.512;13.448;2023-11-21T05:10:55;6.55;;;5.68;;
63218;SDS011;49320;52.512;13.448;2023-11-21T05:13:22;5.70;;;5.00;;
63218;SDS011;49320;52.512;13.448;2023-11-21T05:15:54;9.07;;;5.95;;
63218;SDS011;49320;52.512;13.448;2023-11-21T05:18:24;6.05;;;5.40;;
63218;SDS011;49320;52.512;13.448;2023-11-21T05:20:56;6.63;;;5.63;;
63218;SDS011;49320;52.512;13.448;2023-11-21T05:23:23;6.55;;;5.43;;
63218;SDS011;49320;52.512;13.448;2023-11-21T05:25:51;7.28;;;5.78;;
63218;SDS011;49320;52.512;13.448;2023-11-21T05:28:18;5.75;;;5.20;;
63218;SDS011;49320;52.512;13.448;2023-11-21T05:30:45;6.97;;;4.95;;
63218;SDS011;49320;52.512;13.448;2023-11-21T05:33:12;6.47;;;5.45;;
63218;SDS011;49320;52.512;13.448;2023-11-21T05:35:38;6.32;;;5.72;;
63218;SDS011;49320;52.512;13.448;2023-11-21T05:38:05;7.15;;;6.22;;
63218;SDS011;49320;52.512;13.448;2023-11-21T05:40:32;6.07;;;5.30;;
63218;SDS011;49320;52.512;13.448;2023-11-21T05:42:59;6.47;;;5.75;;
63218;SDS011;49320;52.512;13.448;2023-11-21T05:45:26;6.10;;;5.47;;
63218;SDS011;49320;52.512;13.448;2023-11-21T05:47:55;5.82;;;5.18;;
63218;SDS011;49320;52.512;13.448;2023-11-21T05:50:22;7.28;;;5.57;;
63218;SDS011;49320;52.512;13.448;2023-11-21T05:52:49;5.97;;;4.95;;
63218;SDS011;49320;52.512;13.448;2023-11-21T05:55:16;7.25;;;5.90;;
63218;SDS011;49320;52.512;13.448;2023-11-21T05:57:43;5.85;;;5.25;;
63218;SDS011;49320;52.512;13.448;2023-11-21T06:00:11;6.22;;;5.38;;
63218;SDS011;49320;52.512;13.448;2023-11-21T06:02:48;8.32;;;5.35;;
63218;SDS011;49320;52.512;13.448;2023-11-21T06:05:24;6.28;;;5.55;;
63218;SDS011;49320;52.512;13.448;2023-11-21T06:07:53;7.22;;;5.95;;
63218;SDS011;49320;52.512;13.448;2023-11-21T06:10:25;6.93;;;5.90;;
63218;SDS011;49320;52.512;13.448;2023-11-21T06:12:55;7.53;;;6.18;;
63218;SDS011;49320;52.512;13.448;2023-11-21T06:15:25;6.95;;;5.78;;
63218;SDS011;49320;52.512;13.448;2023-11-21T06:17:52;7.07;;;6.38;;
63218;SDS011;49320;52.512;13.448;2023-11-21T06:20:20;7.88;;;6.30;;
63218;SDS011;49320;52.512;13.448;2023-11-21T06:22:49;6.10;;;5.43;;
63218;SDS011;49320;52.512;13.448;2023-11-21T06:25:16;6.25;;;5.63;;
63218;SDS011;49320;52.512;13.448;2023-11-21T06:27:44;6.57;;;5.85;;
63218;SDS011;49320;52.512;13.448;2023-11-21T06:30:13;7.30;;;5.28;;
63218;SDS011;49320;52.512;13.448;2023-11-21T06:32:42;5.60;;;4.78;;
63218;SDS011;49320;52.512;13.448;2023-11-21T06:35:12;5.75;;;5.15;;
63218;SDS011;49320;52.512;13.448;2023-11-21T06:37:39;6.38;;;5.30;;
63218;SDS011;49320;52.512;13.448;2023-11-21T06:40:06;5.93;;;4.75;;
63218;SDS011;49320;52.512;13.448;2023-11-21T06:42:36;6.40;;;4.97;;
63218;SDS011;49320;52.512;13.448;2023-11-21T06:45:04;6.10;;;5.00;;
63218;SDS011;49320;52.512;13.448;2023-11-21T06:47:32;6.22;;;5.25;;
63218;SDS011;49320;52.512;13.448;2023-11-21T06:49:59;4.75;;;4.20;;
63218;SDS011;49320;52.512;13.448;2023-11-21T06:52:27;4.95;;;4.40;;
63218;SDS011;49320;52.512;13.448;2023-11-21T06:54:54;5.22;;;4.72;;
63218;SDS011;49320;52.512;13.448;2023-11-21T06:57:24;6.63;;;5.15;;
63218;SDS011;49320;52.512;13.448;2023-11-21T06:59:51;6.82;;;5.43;;
63218;SDS011;49320;52.512;13.448;2023-11-21T07:02:18;6.40;;;5.40;;
63218;SDS011;49320;52.512;13.448;2023-11-21T07:04:45;5.38;;;4.82;;
63218;SDS011;49320;52.512;13.448;2023-11-21T07:07:12;5.47;;;4.90;;
63218;SDS011;49320;52.512;13.448;2023-11-21T07:09:39;7.05;;;5.10;;
63218;SDS011;49320;52.512;13.448;2023-11-21T07:12:06;6.93;;;5.60;;
63218;SDS011;49320;52.512;13.448;2023-11-21T07:14:34;5.05;;;4.20;;
63218;SDS011;49320;52.512;13.448;2023-11-21T07:17:01;5.88;;;4.78;;
63218;SDS011;49320;52.512;13.448;2023-11-21T07:19:28;5.60;;;4.88;;
63218;SDS011;49320;52.512;13.448;2023-11-21T07:21:55;5.72;;;5.13;;
63218;SDS011;49320;52.512;13.448;2023-11-21T07:24:22;7.10;;;5.00;;
63218;SDS011;49320;52.512;13.448;2023-11-21T07:26:52;7.00;;;4.78;;
63218;SDS011;49320;52.512;13.448;2023-11-21T07:29:23;5.13;;;4.28;;
63218;SDS011;49320;52.512;13.448;2023-11-21T07:31:52;5.13;;;4.18;;
63218;SDS011;49320;52.512;13.448;2023-11-21T07:34:20;5.57;;;4.72;;
63218;SDS011;49320;52.512;13.448;2023-11-21T07:36:47;4.70;;;4.25;;
63218;SDS011;49320;52.512;13.448;2023-11-21T07:39:14;5.55;;;4.72;;
63218;SDS011;49320;52.512;13.448;2023-11-21T07:41:42;4.45;;;3.97;;
63218;SDS011;49320;52.512;13.448;2023-11-21T07:44:16;4.55;;;3.63;;
63218;SDS011;49320;52.512;13.448;2023-11-21T07:46:46;4.05;;;3.60;;
63218;SDS011;49320;52.512;13.448;2023-11-21T07:49:16;5.43;;;4.55;;
63218;SDS011;49320;52.512;13.448;2023-11-21T07:51:46;4.97;;;4.28;;
63218;SDS011;49320;52.512;13.448;2023-11-21T07:54:13;4.75;;;3.83;;
63218;SDS011;49320;52.512;13.448;2023-11-21T07:56:40;4.88;;;4.25;;
63218;SDS011;49320;52.512;13.448;2023-11-21T07:59:07;5.25;;;4.03;;
63218;SDS011;49320;52.512;13.448;2023-11-21T08:01:34;4.78;;;3.72;;
63218;SDS011;49320;52.512;13.448;2023-11-21T08:04:01;4.35;;;3.95;;
63218;SDS011;49320;52.512;13.448;2023-11-21T08:06:30;4.95;;;4.03;;
63218;SDS011;49320;52.512;13.448;2023-11-21T08:08:58;4.70;;;4.00;;
63218;SDS011;49320;52.512;13.448;2023-11-21T08:11:25;5.68;;;4.38;;
63218;SDS011;49320;52.512;13.448;2023-11-21T08:13:55;5.13;;;3.72;;
63218;SDS011;49320;52.512;13.448;2023-11-21T08:16:22;5.68;;;4.55;;
63218;SDS011;49320;52.512;13.448;2023-11-21T08:18:50;5.53;;;4.40;;
63218;SDS011;49320;52.512;13.448;2023-11-21T08:21:17;6.22;;;4.57;;
63218;SDS011;49320;52.512;13.448;2023-11-21T08:23:45;8.40;;;5.15;;
63218;SDS011;49320;52.512;13.448;2023-11-21T08:26:15;6.70;;;4.45;;
63218;SDS011;49320;52.512;13.448;2023-11-21T08:28:42;6.82;;;4.80;;
63218;SDS011;49320;52.512;13.448;2023-11-21T08:31:09;7.43;;;5.18;;
63218;SDS011;49320;52.512;13.448;2023-11-21T08:33:38;7.82;;;5.55;;
63218;SDS011;49320;52.512;13.448;2023-11-21T08:36:08;8.40;;;5.60;;
63218;SDS011;49320;52.512;13.448;2023-11-21T08:38:37;10.38;;;6.05;;
63218;SDS011;49320;52.512;13.448;2023-11-21T08:41:05;8.15;;;6.03;;
63218;SDS011;49320;52.512;13.448;2023-11-21T08:43:37;9.65;;;6.10;;
63218;SDS011;49320;52.512;13.448;2023-11-21T08:46:06;9.68;;;5.85;;
63218;SDS011;49320;52.512;13.448;2023-11-21T08:48:38;10.20;;;6.57;;
63218;SDS011;49320;52.512;13.448;2023-11-21T08:51:09;8.50;;;5.88;;
63218;SDS011;49320;52.512;13.448;2023-11-21T08:53:40;11.25;;;6.65;;
63218;SDS011;49320;52.512;13.448;2023-11-21T08:56:07;9.57;;;6.00;;
63218;SDS011;49320;52.512;13.448;2023-11-21T08:58:38;10.23;;;6.75;;
63218;SDS011;49320;52.512;13.448;2023-11-21T09:01:05;11.23;;;6.70;;
63218;SDS011;49320;52.512;13.448;2023-11-21T09:03:33;11.27;;;7.57;;
63218;SDS011;49320;52.512;13.448;2023-11-21T09:06:00;10.90;;;6.47;;
63218;SDS011;49320;52.512;13.448;2023-11-21T09:08:27;11.25;;;7.32;;
63218;SDS011;49320;52.512;13.448;2023-11-21T09:10:56;11.80;;;6.90;;
63218;SDS011;49320;52.512;13.448;2023-11-21T09:13:23;12.57;;;7.57;;
63218;SDS011;49320;52.512;13.448;2023-11-21T09:15:51;11.73;;;7.22;;
63218;SDS011;49320;52.512;13.448;2023-11-21T09:18:18;12.00;;;7.15;;
63218;SDS011;49320;52.512;13.448;2023-11-21T09:20:45;11.07;;;6.97;;
63218;SDS011;49320;52.512;13.448;2023-11-21T09:23:12;12.23;;;7.28;;
63218;SDS011;49320;52.512;13.448;2023-11-21T09:25:39;13.38;;;7.50;;
63218;SDS011;49320;52.512;13.448;2023-11-21T09:28:06;11.85;;;6.93;;
63218;SDS011;49320;52.512;13.448;2023-11-21T09:30:36;9.85;;;6.43;;
63218;SDS011;49320;52.512;13.448;2023-11-21T09:33:03;9.07;;;6.05;;
63218;SDS011;49320;52.512;13.448;2023-11-21T09:35:37;9.18;;;5.47;;
63218;SDS011;49320;52.512;13.448;2023-11-21T09:38:04;7.07;;;4.25;;
63218;SDS011;49320;52.512;13.448;2023-11-21T09:40:36;6.75;;;4.63;;
63218;SDS011;49320;52.512;13.448;2023-11-21T09:43:05;6.95;;;4.40;;
63218;SDS011;49320;52.512;13.448;2023-11-21T09:45:43;6.90;;;4.35;;
63218;SDS011;49320;52.512;13.448;2023-11-21T09:48:16;5.35;;;3.88;;
63218;SDS011;49320;52.512;13.448;2023-11-21T09:50:46;5.22;;;3.45;;
63218;SDS011;49320;52.512;13.448;2023-11-21T09:53:17;6.03;;;3.83;;
63218;SDS011;49320;52.512;13.448;2023-11-21T09:58:19;3.55;;;2.42;;
63218;SDS011;49320;52.512;13.448;2023-11-21T10:00:50;3.55;;;2.40;;
63218;SDS011;49320;52.512;13.448;2023-11-21T10:03:23;3.55;;;2.70;;
63218;SDS011;49320;52.512;13.448;2023-11-21T10:05:50;3.00;;;2.30;;
63218;SDS011;49320;52.512;13.448;2023-11-21T10:08:20;2.67;;;1.80;;
63218;SDS011;49320;52.512;13.448;2023-11-21T10:10:51;2.72;;;2.13;;
63218;SDS011;49320;52.512;13.448;2023-11-21T10:13:20;2.78;;;1.98;;
63218;SDS011;49320;52.512;13.448;2023-11-21T10:15:51;2.42;;;1.85;;
63218;SDS011;49320;52.512;13.448;2023-11-21T10:18:19;2.30;;;1.88;;
63218;SDS011;49320;52.512;13.448;2023-11-21T10:20:49;2.70;;;2.20;;
63218;SDS011;49320;52.512;13.448;2023-11-21T10:23:20;2.55;;;1.88;;
63218;SDS011;49320;52.512;13.448;2023-11-21T10:25:50;3.05;;;2.13;;
63218;SDS011;49320;52.512;13.448;2023-11-21T10:28:19;2.47;;;2.25;;
63218;SDS011;49320;52.512;13.448;2023-11-21T10:30:47;2.97;;;2.22;;
63218;SDS011;49320;52.512;13.448;2023-11-21T10:33:14;3.80;;;2.10;;
63218;SDS011;49320;52.512;13.448;2023-11-21T10:38:21;2.20;;;2.00;;
63218;SDS011;49320;52.512;13.448;2023-11-21T10:40:50;2.70;;;2.30;;
63218;SDS011;49320;52.512;13.448;2023-11-21T10:43:18;2.90;;;2.30;;
63218;SDS011;49320;52.512;13.448;2023-11-21T10:45:45;2.92;;;2.30;;
63218;SDS011;49320;52.512;13.448;2023-11-21T10:48:13;2.85;;;2.55;;
63218;SDS011;49320;52.512;13.448;2023-11-21T10:50:45;3.20;;;2.60;;
63218;SDS011;49320;52.512;13.448;2023-11-21T10:53:14;2.95;;;2.33;;
63218;SDS011;49320;52.512;13.448;2023-11-21T10:55:41;3.15;;;2.47;;
63218;SDS011;49320;52.512;13.448;2023-11-21T10:58:11;4.10;;;2.50;;
63218;SDS011;49320;52.512;13.448;2023-11-21T11:00:41;4.07;;;3.00;;
63218;SDS011;49320;52.512;13.448;2023-11-21T11:03:11;3.50;;;2.42;;
63218;SDS011;49320;52.512;13.448;2023-11-21T11:05:46;3.20;;;2.58;;
63218;SDS011;49320;52.512;13.448;2023-11-21T11:08:19;3.78;;;2.65;;
63218;SDS011;49320;52.512;13.448;2023-11-21T11:10:53;3.75;;;3.00;;
63218;SDS011;49320;52.512;13.448;2023-11-21T11:13:21;3.40;;;2.72;;
63218;SDS011;49320;52.512;13.448;2023-11-21T11:15:49;3.72;;;3.00;;
63218;SDS011;49320;52.512;13.448;2023-11-21T11:18:16;3.45;;;2.53;;
63218;SDS011;49320;52.512;13.448;2023-11-21T11:20:45;3.00;;;2.70;;
63218;SDS011;49320;52.512;13.448;2023-11-21T11:29:15;3.03;;;2.55;;
63218;SDS011;49320;52.512;13.448;2023-11-21T11:34:53;4.60;;;3.30;;
63218;SDS011;49320;52.512;13.448;2023-11-21T11:37:30;3.63;;;3.03;;
63218;SDS011;49320;52.512;13.448;2023-11-21T11:39:57;3.35;;;2.92;;
63218;SDS011;49320;52.512;13.448;2023-11-21T11:42:26;3.33;;;2.80;;
63218;SDS011;49320;52.512;13.448;2023-11-21T11:44:53;2.92;;;2.50;;
63218;SDS011;49320;52.512;13.448;2023-11-21T11:47:23;3.72;;;2.72;;
63218;SDS011;49320;52.512;13.448;2023-11-21T11:52:46;2.92;;;2.38;;
63218;SDS011;49320;52.512;13.448;2023-11-21T11:55:19;5.38;;;2.53;;
63218;SDS011;49320;52.512;13.448;2023-11-21T11:57:49;4.18;;;2.83;;
63218;SDS011;49320;52.512;13.448;2023-11-21T12:02:57;3.20;;;2.90;;
63218;SDS011;49320;52.512;13.448;2023-11-21T12:05:29;3.83;;;3.08;;
63218;SDS011;49320;52.512;13.448;2023-11-21T12:08:02;3.25;;;2.83;;
63218;SDS011;49320;52.512;13.448;2023-11-21T12:10:31;2.67;;;2.10;;
63218;SDS011;49320;52.512;13.448;2023-11-21T12:13:07;3.60;;;2.75;;
63218;SDS011;49320;52.512;13.448;2023-11-21T12:15:37;2.53;;;2.20;;
63218;SDS011;49320;52.512;13.448;2023-11-21T12:18:06;3.15;;;2.42;;
63218;SDS011;49320;52.512;13.448;2023-11-21T12:20:33;2.80;;;2.30;;
63218;SDS011;49320;52.512;13.448;2023-11-21T12:23:06;2.60;;;2.40;;
63218;SDS011;49320;52.512;13.448;2023-11-21T12:25:35;2.60;;;2.33;;
63218;SDS011;49320;52.512;13.448;2023-11-21T12:28:03;2.97;;;2.08;;
63218;SDS011;49320;52.512;13.448;2023-11-21T12:30:33;2.90;;;2.10;;
63218;SDS011;49320;52.512;13.448;2023-11-21T12:33:02;2.80;;;2.15;;
63218;SDS011;49320;52.512;13.448;2023-11-21T12:35:31;2.30;;;2.10;;
63218;SDS011;49320;52.512;13.448;2023-11-21T12:38:01;4.78;;;2.30;;
63218;SDS011;49320;52.512;13.448;2023-11-21T12:40:29;3.20;;;2.05;;
63218;SDS011;49320;52.512;13.448;2023-11-21T12:42:57;2.50;;;2.13;;
63218;SDS011;49320;52.512;13.448;2023-11-21T12:45:28;2.30;;;2.10;;
63218;SDS011;49320;52.512;13.448;2023-11-21T12:47:58;2.63;;;2.05;;
63218;SDS011;49320;52.512;13.448;2023-11-21T12:50:34;2.95;;;2.20;;
63218;SDS011;49320;52.512;13.448;2023-11-21T12:53:07;2.20;;;2.00;;
63218;SDS011;49320;52.512;13.448;2023-11-21T12:55:43;3.17;;;2.15;;
63218;SDS011;49320;52.512;13.448;2023-11-21T12:58:16;2.40;;;2.20;;
63218;SDS011;49320;52.512;13.448;2023-11-21T13:00:46;3.75;;;2.78;;
63218;SDS011;49320;52.512;13.448;2023-11-21T13:03:15;3.65;;;2.60;;
63218;SDS011;49320;52.512;13.448;2023-11-21T13:05:46;2.85;;;2.55;;
63218;SDS011;49320;52.512;13.448;2023-11-21T13:08:21;3.03;;;2.30;;
63218;SDS011;49320;52.512;13.448;2023-11-21T13:10:54;3.28;;;2.63;;
63218;SDS011;49320;52.512;13.448;2023-11-21T13:13:24;2.63;;;2.42;;
63218;SDS011;49320;52.512;13.448;2023-11-21T13:15:56;3.85;;;2.75;;
63218;SDS011;49320;52.512;13.448;2023-11-21T13:18:28;3.60;;;3.03;;
63218;SDS011;49320;52.512;13.448;2023-11-21T13:20:58;3.58;;;2.90;;
63218;SDS011;49320;52.512;13.448;2023-11-21T13:23:28;3.75;;;2.90;;
63218;SDS011;49320;52.512;13.448;2023-11-21T13:25:58;3.17;;;2.55;;
63218;SDS011;49320;52.512;13.448;2023-11-21T13:28:32;3.47;;;2.85;;
63218;SDS011;49320;52.512;13.448;2023-11-21T13:31:01;2.85;;;2.55;;
63218;SDS011;49320;52.512;13.448;2023-11-21T13:33:37;3.70;;;3.08;;
63218;SDS011;49320;52.512;13.448;2023-11-21T13:36:07;4.10;;;3.53;;
63218;SDS011;49320;52.512;13.448;2023-11-21T13:38:36;4.50;;;4.07;;
63218;SDS011;49320;52.512;13.448;2023-11-21T13:41:07;4.38;;;3.90;;
63218;SDS011;49320;52.512;13.448;2023-11-21T13:43:36;5.13;;;4.40;;
63218;SDS011;49320;52.512;13.448;2023-11-21T13:46:03;5.00;;;3.97;;
63218;SDS011;49320;52.512;13.448;2023-11-21T13:48:39;6.10;;;4.65;;
63218;SDS011;49320;52.512;13.448;2023-11-21T13:51:09;5.63;;;4.70;;
63218;SDS011;49320;52.512;13.448;2023-11-21T13:53:47;5.90;;;4.07;;
63218;SDS011;49320;52.512;13.448;2023-11-21T13:56:17;6.22;;;4.88;;
63218;SDS011;49320;52.512;13.448;2023-11-21T13:58:48;4.85;;;3.97;;
63218;SDS011;49320;52.512;13.448;2023-11-21T14:01:20;5.00;;;4.35;;
63218;SDS011;49320;52.512;13.448;2023-11-21T14:04:01;6.43;;;5.40;;
63218;SDS011;49320;52.512;13.448;2023-11-21T14:06:46;5.63;;;5.13;;
63218;SDS011;49320;52.512;13.448;2023-11-21T14:09:19;6.30;;;5.50;;
63218;SDS011;49320;52.512;13.448;2023-11-21T14:11:49;6.55;;;5.85;;
63218;SDS011;49320;52.512;13.448;2023-11-21T14:14:23;7.25;;;6.55;;
63218;SDS011;49320;52.512;13.448;2023-11-21T14:16:52;7.85;;;6.65;;
63218;SDS011;49320;52.512;13.448;2023-11-21T14:19:19;7.75;;;6.93;;
63218;SDS011;49320;52.512;13.448;2023-11-21T14:21:47;7.95;;;7.10;;
63218;SDS011;49320;52.512;13.448;2023-11-21T14:24:15;8.45;;;7.55;;
63218;SDS011;49320;52.512;13.448;2023-11-21T14:26:46;9.05;;;8.02;;
63218;SDS011;49320;52.512;13.448;2023-11-21T14:29:16;9.25;;;8.30;;
63218;SDS011;49320;52.512;13.448;2023-11-21T14:31:46;12.27;;;9.50;;
63218;SDS011;49320;52.512;13.448;2023-11-21T14:34:14;10.55;;;9.40;;
63218;SDS011;49320;52.512;13.448;2023-11-21T14:36:46;11.00;;;9.90;;
63218;SDS011;49320;52.512;13.448;2023-11-21T14:39:13;14.40;;;11.05;;
63218;SDS011;49320;52.512;13.448;2023-11-21T14:41:50;11.63;;;10.20;;
63218;SDS011;49320;52.512;13.448;2023-11-21T14:44:19;12.55;;;11.10;;
63218;SDS011;49320;52.512;13.448;2023-11-21T14:46:47;13.85;;;11.85;;
63218;SDS011;49320;52.512;13.448;2023-11-21T14:49:17;13.20;;;11.50;;
63218;SDS011;49320;52.512;13.448;2023-11-21T14:51:46;12.55;;;10.90;;
63218;SDS011;49320;52.512;13.448;2023-11-21T14:54:47;12.45;;;11.20;;
63218;SDS011;49320;52.512;13.448;2023-11-21T14:57:25;14.20;;;11.77;;
63218;SDS011;49320;52.512;13.448;2023-11-21T14:59:53;14.70;;;12.82;;
63218;SDS011;49320;52.512;13.448;2023-11-21T15:02:24;14.13;;;12.68;;